ナイロビ の空港の天気 - METARとTAF

ジョモ・ケニヤッタ国際空港 ( HKJK / NBO ) - ケニア ナイロビ
飛行場実況気象(Metar)
観測時間07/16 09:30 EAT (07/16 06:30 UTC)
風向・風速南 3m/s
視程10km以上
天気現象
全天の8割程度の雲 雲底高度 520m
気温15℃
湿度77%
気圧1027hPa
METARHKJK 160630Z 19005KT 9999 BKN017 15/11 Q1027
過去の天気等 Google飛行場航空写真 Wunderground天気予報

過去48時間のMETAR

飛行場予報(TAF)
発表時間: 7/16 08:00 EAT (7/16 05:00 UTC)
予報対象時間: 16日9時 EAT ~ 17日15時 EAT
風向・風速南南西 3m/s
視程10km以上
全天の8割程度の雲 雲底高度 520m
16日11時 EAT ~ 16日14時 EAT に徐々に
風向・風速南東 5m/s
全天の8割程度の雲 雲底高度 730m
16日23時 EAT ~ 17日2時 EAT に徐々に
風向・風速南南西 3m/s
全天の8割程度の雲 雲底高度 610m
TAF HKJK 160500Z 1606/1712 21005KT 9999 BKN017
BECMG 1608/1611 14010KT BKN024
BECMG 1620/1623 20005KT BKN020